Time;durP1;ratioP1;P1;durP2;ratioP2;P2;SDS_P1;SDS_P2;PMS_P1;PMS_P2;Temp;Humidity;BMP_temperature;BMP_pressure;BME280_temperature;BME280_humidity;BME280_pressure;Samples;Min_cycle;Max_cycle;Signal;HPM_P1;HPM_P2
2023/07/05 00:09:59;;;;;;;14.05;9.05;;;;;;;;;;10540707;28;20012;-70
2023/07/05 00:14:59;;;;;;;15.40;8.97;;;;;;;;;;10541480;28;20024;-70
2023/07/05 00:19:59;;;;;;;13.82;8.52;;;;;;;;;;10540528;28;20012;-70
2023/07/05 00:30:41;;;;;;;14.05;8.90;;;;;;;;;;10550212;28;20179;-70
2023/07/05 00:41:20;;;;;;;18.45;9.52;;;;;;;;;;10548802;28;20357;-71
2023/07/05 00:52:00;;;;;;;17.75;10.85;;;;;;;;;;10563052;28;20024;-71
2023/07/05 01:02:39;;;;;;;20.52;10.68;;;;;;;;;;10547715;28;20076;-70
2023/07/05 01:07:39;;;;;;;18.10;10.85;;;;;;;;;;10554537;28;20314;-69
2023/07/05 01:13:10;;;;;;;17.35;10.52;;;;;;;;;;10547298;28;20046;-70
2023/07/05 01:18:17;;;;;;;16.10;10.57;;;;;;;;;;10548762;28;20046;-70
2023/07/05 01:23:20;;;;;;;17.90;11.68;;;;;;;;;;10545710;28;20216;-70
2023/07/05 01:28:24;;;;;;;16.60;10.55;;;;;;;;;;10545214;28;20027;-71
2023/07/05 01:33:30;;;;;;;13.98;9.65;;;;;;;;;;10543697;28;20036;-71
2023/07/05 01:38:30;;;;;;;16.27;10.98;;;;;;;;;;10543188;28;20019;-71
2023/07/05 01:49:26;;;;;;;17.48;10.50;;;;;;;;;;10544358;28;20008;-71
2023/07/05 01:54:27;;;;;;;17.05;10.75;;;;;;;;;;10544359;28;20289;-71
2023/07/05 02:05:06;;;;;;;17.58;10.75;;;;;;;;;;10543778;28;20012;-71
2023/07/05 02:10:07;;;;;;;21.20;11.45;;;;;;;;;;10548490;28;20082;-71
2023/07/05 02:15:07;;;;;;;17.55;11.30;;;;;;;;;;10544794;28;20069;-71
2023/07/05 02:20:08;;;;;;;21.13;12.93;;;;;;;;;;10544565;28;20028;-70
2023/07/05 02:25:08;;;;;;;18.90;11.40;;;;;;;;;;10544378;28;20363;-70
2023/07/05 02:30:09;;;;;;;20.57;11.50;;;;;;;;;;10544483;28;20044;-70
2023/07/05 02:40:47;;;;;;;19.42;12.55;;;;;;;;;;10557743;28;20024;-71
2023/07/05 02:45:48;;;;;;;17.58;11.27;;;;;;;;;;10542071;28;20230;-70
2023/07/05 02:56:26;;;;;;;18.48;12.82;;;;;;;;;;10543603;28;20326;-71
2023/07/05 03:01:26;;;;;;;17.30;10.38;;;;;;;;;;10544510;28;20024;-71
2023/07/05 03:12:04;;;;;;;21.57;11.30;;;;;;;;;;10545763;28;20032;-71
2023/07/05 03:17:05;;;;;;;18.80;11.07;;;;;;;;;;10543499;28;20019;-70
2023/07/05 03:27:42;;;;;;;20.90;12.10;;;;;;;;;;10542540;28;20000;-70
2023/07/05 03:32:43;;;;;;;19.30;11.48;;;;;;;;;;10543096;28;20039;-71
2023/07/05 03:37:43;;;;;;;17.48;11.60;;;;;;;;;;10543482;28;20233;-71
2023/07/05 03:43:06;;;;;;;21.45;11.73;;;;;;;;;;10541692;28;20024;-70
2023/07/05 03:48:06;;;;;;;15.73;11.32;;;;;;;;;;10541342;28;20027;-71
2023/07/05 03:58:44;;;;;;;19.77;12.13;;;;;;;;;;10540817;28;20004;-71
2023/07/05 04:03:46;;;;;;;17.92;10.98;;;;;;;;;;10543578;28;20113;-70
2023/07/05 04:14:24;;;;;;;21.02;11.30;;;;;;;;;;10541522;28;20024;-74
2023/07/05 04:19:24;;;;;;;18.55;10.32;;;;;;;;;;10540867;28;20012;-73
2023/07/05 04:29:52;;;;;;;16.27;10.38;;;;;;;;;;10464928;28;20063;-75
2023/07/05 04:34:52;;;;;;;22.13;12.13;;;;;;;;;;10451329;28;20496;-81
2023/07/05 04:39:52;;;;;;;32.53;18.98;;;;;;;;;;10434704;28;20509;-72
2023/07/05 04:44:53;;;;;;;21.08;12.57;;;;;;;;;;10473159;28;20484;-74
2023/07/05 04:49:53;;;;;;;19.73;11.38;;;;;;;;;;10477461;28;20476;-84
2023/07/05 04:54:54;;;;;;;23.05;12.73;;;;;;;;;;10476530;28;20027;-76
2023/07/05 04:59:54;;;;;;;57.83;53.10;;;;;;;;;;10473367;28;20025;-76
2023/07/05 05:04:54;;;;;;;16.97;10.13;;;;;;;;;;10475315;28;20024;-77
2023/07/05 05:09:56;;;;;;;18.90;10.25;;;;;;;;;;10482833;28;20020;-81
2023/07/05 05:14:56;;;;;;;17.08;10.13;;;;;;;;;;10486246;28;20021;-79
2023/07/05 05:19:57;;;;;;;15.15;9.02;;;;;;;;;;10486822;28;20499;-76
2023/07/05 05:24:57;;;;;;;22.70;10.13;;;;;;;;;;10485842;28;20500;-75
2023/07/05 05:29:57;;;;;;;14.85;9.43;;;;;;;;;;10427408;28;20025;-73
2023/07/05 05:34:57;;;;;;;15.02;9.10;;;;;;;;;;10427128;28;20102;-76
2023/07/05 05:39:58;;;;;;;12.63;8.95;;;;;;;;;;10445533;28;20017;-80
2023/07/05 05:44:58;;;;;;;18.30;9.40;;;;;;;;;;10428342;28;20027;-75
2023/07/05 05:49:58;;;;;;;13.05;8.88;;;;;;;;;;10429217;28;20074;-82
2023/07/05 05:54:58;;;;;;;14.03;8.57;;;;;;;;;;10426649;28;20112;-79
2023/07/05 05:59:59;;;;;;;15.98;8.77;;;;;;;;;;10427448;28;20029;-79
2023/07/05 06:04:59;;;;;;;17.42;14.52;;;;;;;;;;10425782;28;20551;-80
2023/07/05 06:09:59;;;;;;;15.20;8.27;;;;;;;;;;10427519;28;20361;-78
2023/07/05 06:15:00;;;;;;;17.80;8.63;;;;;;;;;;10443626;28;20056;-76
2023/07/05 06:20:00;;;;;;;20.13;17.05;;;;;;;;;;10442793;28;20021;-81
2023/07/05 06:25:01;;;;;;;216.38;201.32;;;;;;;;;;10428348;28;20405;-83
2023/07/05 06:30:01;;;;;;;367.60;338.83;;;;;;;;;;10509095;28;20056;-82
2023/07/05 06:35:02;;;;;;;12.50;8.60;;;;;;;;;;10526900;28;20053;-80
2023/07/05 06:40:03;;;;;;;302.02;280.10;;;;;;;;;;10508963;28;20020;-77
2023/07/05 06:45:03;;;;;;;48.10;44.25;;;;;;;;;;10507360;28;20066;-82
2023/07/05 06:50:04;;;;;;;231.38;215.48;;;;;;;;;;10507885;28;20038;-74
2023/07/05 06:55:05;;;;;;;283.35;262.33;;;;;;;;;;10508372;28;20077;-74
2023/07/05 07:00:07;;;;;;;645.92;593.08;;;;;;;;;;10507670;28;20024;-76
2023/07/05 07:05:07;;;;;;;859.90;786.67;;;;;;;;;;10506701;28;20404;-75
2023/07/05 07:10:07;;;;;;;508.83;469.07;;;;;;;;;;10508267;28;20024;-80
2023/07/05 07:15:08;;;;;;;377.13;347.00;;;;;;;;;;10505608;28;20028;-78
2023/07/05 07:20:08;;;;;;;351.40;322.10;;;;;;;;;;10506755;28;20020;-80
2023/07/05 07:25:09;;;;;;;481.92;442.30;;;;;;;;;;10490081;28;20038;-82
2023/07/05 07:30:10;;;;;;;375.85;345.60;;;;;;;;;;10523712;28;20023;-73
2023/07/05 07:35:12;;;;;;;616.72;567.05;;;;;;;;;;10505486;28;20051;-78
2023/07/05 07:40:13;;;;;;;183.55;170.80;;;;;;;;;;10523424;28;20480;-80
2023/07/05 07:45:13;;;;;;;652.92;599.05;;;;;;;;;;10515152;28;20036;-80
2023/07/05 07:50:15;;;;;;;871.90;796.38;;;;;;;;;;10490923;28;20459;-80
2023/07/05 07:55:15;;;;;;;860.45;786.15;;;;;;;;;;10505331;28;20027;-79
2023/07/05 08:00:16;;;;;;;727.03;664.67;;;;;;;;;;10534970;28;20383;-76
2023/07/05 08:05:17;;;;;;;822.50;749.77;;;;;;;;;;10527674;28;20020;-81
2023/07/05 08:10:17;;;;;;;511.63;470.15;;;;;;;;;;10505405;28;20265;-82
2023/07/05 08:15:17;;;;;;;543.50;497.98;;;;;;;;;;10504228;28;20114;-75
2023/07/05 08:20:17;;;;;;;699.28;640.55;;;;;;;;;;10505883;28;20054;-78
2023/07/05 08:25:17;;;;;;;933.10;851.40;;;;;;;;;;10474651;28;20040;-75
2023/07/05 08:30:18;;;;;;;772.08;706.67;;;;;;;;;;10481130;28;20028;-75
2023/07/05 08:35:19;;;;;;;985.40;900.95;;;;;;;;;;10478626;28;20024;-78
2023/07/05 08:40:19;;;;;;;786.88;720.55;;;;;;;;;;10480179;28;20104;-79
2023/07/05 08:45:35;;;;;;;1133.05;999.90;;;;;;;;;;10487073;28;20410;-76
2023/07/05 08:50:39;;;;;;;1023.83;934.60;;;;;;;;;;10487619;28;20502;-79
2023/07/05 08:55:48;;;;;;;1106.65;999.90;;;;;;;;;;10486519;28;20412;-79
2023/07/05 09:00:59;;;;;;;1132.18;999.90;;;;;;;;;;10486615;28;20032;-82
2023/07/05 09:06:09;;;;;;;801.35;732.22;;;;;;;;;;10481666;28;20028;-80
2023/07/05 09:11:29;;;;;;;293.67;266.88;;;;;;;;;;10486416;28;20025;-76
2023/07/05 09:16:29;;;;;;;11.38;4.57;;;;;;;;;;10472043;28;20140;-74
2023/07/05 09:21:33;;;;;;;232.60;212.77;;;;;;;;;;10485646;28;20081;-76
2023/07/05 09:26:35;;;;;;;8.38;5.07;;;;;;;;;;10499175;28;20131;-81
2023/07/05 09:31:36;;;;;;;455.92;417.63;;;;;;;;;;10510281;28;20085;-80
2023/07/05 09:36:37;;;;;;;211.45;194.73;;;;;;;;;;10528697;28;20020;-79
2023/07/05 09:41:41;;;;;;;871.25;797.58;;;;;;;;;;10509667;28;20043;-79
2023/07/05 09:46:43;;;;;;;52.17;46.90;;;;;;;;;;10509775;28;20558;-77
2023/07/05 09:51:44;;;;;;;8.02;6.10;;;;;;;;;;10509116;28;20024;-74
2023/07/05 09:57:17;;;;;;;313.35;288.10;;;;;;;;;;10509981;28;20564;-74
2023/07/05 10:02:20;;;;;;;941.25;863.38;;;;;;;;;;10475786;28;20028;-75
2023/07/05 10:07:29;;;;;;;8.93;6.18;;;;;;;;;;10509412;28;20023;-77
2023/07/05 10:12:34;;;;;;;12.05;6.53;;;;;;;;;;10492807;28;20020;-79
2023/07/05 10:17:42;;;;;;;8.68;5.95;;;;;;;;;;10506269;28;20597;-80
2023/07/05 10:22:43;;;;;;;14.23;6.57;;;;;;;;;;10526479;28;20028;-81
2023/07/05 10:27:44;;;;;;;9.65;6.68;;;;;;;;;;10507653;28;20519;-75
2023/07/05 10:33:06;;;;;;;13.23;6.05;;;;;;;;;;10507998;28;20020;-83
2023/07/05 10:38:17;;;;;;;17.20;6.75;;;;;;;;;;10507558;28;20016;-81
2023/07/05 10:43:17;;;;;;;11.10;6.85;;;;;;;;;;10492504;28;20512;-80
2023/07/05 10:48:47;;;;;;;15.20;6.93;;;;;;;;;;10507798;28;20031;-77
2023/07/05 10:54:10;;;;;;;14.60;7.05;;;;;;;;;;10483445;23;20061;-71
2023/07/05 10:59:30;;;;;;;11.35;7.93;;;;;;;;;;10498248;28;20025;-70
2023/07/05 11:04:31;;;;;;;44.42;40.65;;;;;;;;;;10498793;28;20055;-70
2023/07/05 11:09:35;;;;;;;10.50;6.75;;;;;;;;;;10498689;28;20244;-70
2023/07/05 11:14:35;;;;;;;166.13;153.48;;;;;;;;;;10498300;28;20322;-70
2023/07/05 11:19:36;;;;;;;655.05;604.17;;;;;;;;;;10498005;28;20079;-70
2023/07/05 11:24:39;;;;;;;862.40;794.23;;;;;;;;;;10497396;28;20233;-69
2023/07/05 11:29:42;;;;;;;888.00;818.95;;;;;;;;;;10498560;28;20079;-70
2023/07/05 11:34:43;;;;;;;589.38;542.28;;;;;;;;;;10497758;28;20016;-70
2023/07/05 11:39:51;;;;;;;1014.67;938.00;;;;;;;;;;10497390;28;20020;-70
2023/07/05 11:44:51;;;;;;;399.90;368.40;;;;;;;;;;10480430;28;20257;-70
2023/07/05 11:50:06;;;;;;;989.47;915.28;;;;;;;;;;10497009;28;20229;-70
2023/07/05 11:55:20;;;;;;;1021.50;942.35;;;;;;;;;;10496590;28;20373;-71
2023/07/05 12:00:41;;;;;;;530.38;490.50;;;;;;;;;;10498083;28;20325;-71
2023/07/05 12:05:43;;;;;;;1040.75;962.28;;;;;;;;;;10496711;28;20028;-71
2023/07/05 12:10:54;;;;;;;11.60;6.68;;;;;;;;;;10501637;28;20122;-71
2023/07/05 12:15:55;;;;;;;594.92;549.03;;;;;;;;;;10496809;28;20236;-70
2023/07/05 12:20:58;;;;;;;14.32;6.63;;;;;;;;;;10496797;28;20017;-70
2023/07/05 12:26:01;;;;;;;9.48;5.68;;;;;;;;;;10495294;28;20047;-70
2023/07/05 12:31:06;;;;;;;9.88;5.63;;;;;;;;;;10496487;28;20024;-70
2023/07/05 12:36:11;;;;;;;292.52;273.90;;;;;;;;;;10496405;28;20020;-70
2023/07/05 12:41:37;;;;;;;12.73;5.00;;;;;;;;;;10495952;28;20020;-70
2023/07/05 12:46:38;;;;;;;7.95;4.65;;;;;;;;;;10492068;28;20039;-70
2023/07/05 12:51:49;;;;;;;8.17;5.47;;;;;;;;;;10495366;28;20055;-71
2023/07/05 12:56:50;;;;;;;7.05;5.07;;;;;;;;;;10496095;28;20047;-70
2023/07/05 13:01:51;;;;;;;11.82;10.27;;;;;;;;;;10495700;28;20062;-71
2023/07/05 13:06:54;;;;;;;8.43;5.22;;;;;;;;;;10495650;28;20035;-71
2023/07/05 13:11:56;;;;;;;11.68;5.63;;;;;;;;;;10495797;28;20178;-71
2023/07/05 13:16:58;;;;;;;10.23;5.70;;;;;;;;;;10496568;28;20348;-70
2023/07/05 13:22:12;;;;;;;5.85;4.85;;;;;;;;;;10495449;28;20044;-70
2023/07/05 13:27:14;;;;;;;11.05;5.20;;;;;;;;;;10495968;28;20025;-70
2023/07/05 13:32:20;;;;;;;9.18;4.85;;;;;;;;;;10501081;28;20237;-72
2023/07/05 13:37:25;;;;;;;9.27;5.55;;;;;;;;;;10501705;28;20094;-70
2023/07/05 13:42:26;;;;;;;9.30;5.53;;;;;;;;;;10502046;28;20032;-70
2023/07/05 13:47:27;;;;;;;6.65;4.90;;;;;;;;;;10501801;28;20058;-70
2023/07/05 13:52:27;;;;;;;6.90;4.80;;;;;;;;;;10501744;28;20040;-70
2023/07/05 13:57:28;;;;;;;7.85;5.22;;;;;;;;;;10502498;28;20110;-71
2023/07/05 14:02:30;;;;;;;6.45;5.03;;;;;;;;;;10501254;28;20083;-71
2023/07/05 14:07:31;;;;;;;9.48;5.85;;;;;;;;;;10500674;28;20088;-71
2023/07/05 14:12:31;;;;;;;13.00;5.00;;;;;;;;;;10500880;28;20355;-71
2023/07/05 14:17:32;;;;;;;10.27;5.63;;;;;;;;;;10501643;28;20054;-71
2023/07/05 14:22:33;;;;;;;6.68;5.53;;;;;;;;;;10500277;28;20227;-71
2023/07/05 14:27:33;;;;;;;10.85;6.00;;;;;;;;;;10500639;28;20016;-70
2023/07/05 14:32:33;;;;;;;10.60;4.83;;;;;;;;;;10499820;28;20325;-71
2023/07/05 14:37:33;;;;;;;10.27;4.40;;;;;;;;;;10499674;28;20022;-71
2023/07/05 14:42:34;;;;;;;9.32;5.10;;;;;;;;;;10498562;28;20025;-70
2023/07/05 14:47:34;;;;;;;11.68;6.72;;;;;;;;;;10499862;28;20318;-71
2023/07/05 14:52:34;;;;;;;11.50;6.13;;;;;;;;;;10499076;28;20110;-71
2023/07/05 14:57:34;;;;;;;11.15;5.80;;;;;;;;;;10498991;28;20314;-69
2023/07/05 15:02:35;;;;;;;11.60;7.50;;;;;;;;;;10499722;28;20035;-70
2023/07/05 15:07:35;;;;;;;7.20;4.75;;;;;;;;;;10498596;28;20355;-70
2023/07/05 15:12:39;;;;;;;935.50;856.30;;;;;;;;;;10498307;28;20245;-70
2023/07/05 15:17:40;;;;;;;767.95;701.72;;;;;;;;;;10498187;28;20017;-70
2023/07/05 15:22:40;;;;;;;987.47;902.78;;;;;;;;;;10497986;28;20357;-70
2023/07/05 15:27:41;;;;;;;564.90;519.60;;;;;;;;;;10497894;28;20372;-70
2023/07/05 15:32:41;;;;;;;172.73;160.88;;;;;;;;;;10498318;28;20013;-70
2023/07/05 15:37:41;;;;;;;1001.97;914.35;;;;;;;;;;10497370;28;20307;-71
2023/07/05 15:42:42;;;;;;;915.47;838.77;;;;;;;;;;10497223;28;20229;-71
2023/07/05 15:47:42;;;;;;;9.07;6.47;;;;;;;;;;10497041;28;20028;-71
2023/07/05 15:52:43;;;;;;;10.98;6.40;;;;;;;;;;10496272;28;20048;-70
2023/07/05 15:57:44;;;;;;;10.35;5.82;;;;;;;;;;10497539;28;20039;-70
2023/07/05 16:02:48;;;;;;;9.73;7.20;;;;;;;;;;10497025;28;20058;-70
2023/07/05 16:07:49;;;;;;;10.43;5.95;;;;;;;;;;10496335;28;20050;-70
2023/07/05 16:12:50;;;;;;;329.10;307.15;;;;;;;;;;10496668;28;20059;-69
2023/07/05 16:17:51;;;;;;;246.07;230.10;;;;;;;;;;10496714;28;20233;-69
2023/07/05 16:22:51;;;;;;;956.77;866.07;;;;;;;;;;10497261;28;20336;-70
2023/07/05 16:27:51;;;;;;;659.22;606.05;;;;;;;;;;10496037;28;20314;-71
2023/07/05 16:32:52;;;;;;;762.85;682.78;;;;;;;;;;10496365;28;20027;-71
2023/07/05 16:37:52;;;;;;;415.00;346.80;;;;;;;;;;10496991;28;20031;-71
2023/07/05 16:42:52;;;;;;;12.02;6.95;;;;;;;;;;10496004;28;20354;-70
2023/07/05 16:47:53;;;;;;;13.17;6.93;;;;;;;;;;10496394;28;20016;-70
2023/07/05 16:52:55;;;;;;;16.90;8.27;;;;;;;;;;10496014;28;20295;-70
2023/07/05 16:57:56;;;;;;;18.77;10.10;;;;;;;;;;10495997;28;20322;-70
2023/07/05 17:02:56;;;;;;;17.30;11.02;;;;;;;;;;10497015;28;20024;-70
2023/07/05 17:07:56;;;;;;;16.75;10.93;;;;;;;;;;10503842;28;20013;-70
2023/07/05 17:12:57;;;;;;;23.03;10.10;;;;;;;;;;10503459;28;20020;-70
2023/07/05 17:17:57;;;;;;;19.85;10.40;;;;;;;;;;10503315;28;20016;-71
2023/07/05 17:22:57;;;;;;;23.17;10.88;;;;;;;;;;10502887;28;20028;-72
2023/07/05 17:27:59;;;;;;;17.90;10.23;;;;;;;;;;10503504;28;20024;-69
2023/07/05 17:33:03;;;;;;;17.50;9.30;;;;;;;;;;10502590;28;20088;-71
2023/07/05 17:38:03;;;;;;;15.52;10.60;;;;;;;;;;10502650;28;20023;-71
2023/07/05 17:43:05;;;;;;;18.38;9.40;;;;;;;;;;10478933;28;20021;-73
2023/07/05 17:48:05;;;;;;;16.85;9.82;;;;;;;;;;10504180;28;20422;-75
2023/07/05 17:53:06;;;;;;;17.58;10.48;;;;;;;;;;10489717;28;20147;-70
2023/07/05 17:58:06;;;;;;;15.68;10.07;;;;;;;;;;10473696;28;20017;-69
2023/07/05 18:03:07;;;;;;;19.63;9.80;;;;;;;;;;10477666;28;20028;-69
2023/07/05 18:08:07;;;;;;;15.32;9.90;;;;;;;;;;10475274;28;20028;-70
2023/07/05 18:13:08;;;;;;;17.15;10.57;;;;;;;;;;10470240;28;20028;-69
2023/07/05 18:18:09;;;;;;;25.48;10.05;;;;;;;;;;10472529;28;20025;-72
2023/07/05 18:23:09;;;;;;;17.17;10.48;;;;;;;;;;10481190;28;20020;-72
2023/07/05 18:28:16;;;;;;;23.73;11.13;;;;;;;;;;10473995;28;20025;-76
2023/07/05 18:33:17;;;;;;;18.87;10.03;;;;;;;;;;10454576;28;20035;-73
2023/07/05 18:38:17;;;;;;;18.27;9.75;;;;;;;;;;10474119;28;20180;-73
2023/07/05 18:43:19;;;;;;;20.33;10.57;;;;;;;;;;10483850;28;20069;-73
2023/07/05 18:48:19;;;;;;;25.08;11.25;;;;;;;;;;10474531;28;20027;-74
2023/07/05 18:53:21;;;;;;;16.48;10.65;;;;;;;;;;10479374;28;20388;-74
2023/07/05 18:58:23;;;;;;;18.17;10.77;;;;;;;;;;10482844;28;20012;-74
2023/07/05 19:03:24;;;;;;;18.15;10.82;;;;;;;;;;10487913;28;20016;-74
2023/07/05 19:08:25;;;;;;;21.77;11.27;;;;;;;;;;10488105;28;20047;-74
2023/07/05 19:13:26;;;;;;;18.13;9.63;;;;;;;;;;10486062;28;20047;-76
2023/07/05 19:18:26;;;;;;;16.60;10.93;;;;;;;;;;10486836;28;20027;-72
2023/07/05 19:23:30;;;;;;;16.75;10.27;;;;;;;;;;10482268;28;20016;-74
2023/07/05 19:28:31;;;;;;;14.82;11.35;;;;;;;;;;10484252;28;20033;-74
2023/07/05 19:33:32;;;;;;;19.92;12.70;;;;;;;;;;10483722;28;20047;-72
2023/07/05 19:38:33;;;;;;;20.83;12.48;;;;;;;;;;10486321;28;20222;-77
2023/07/05 19:43:33;;;;;;;18.60;10.70;;;;;;;;;;10485070;28;20059;-75
2023/07/05 19:48:34;;;;;;;24.08;12.88;;;;;;;;;;10488080;28;20087;-77
2023/07/05 19:53:34;;;;;;;26.10;12.83;;;;;;;;;;10493799;28;20052;-72
2023/07/05 19:58:35;;;;;;;20.50;13.38;;;;;;;;;;10496808;28;20667;-74
2023/07/05 20:03:35;;;;;;;21.52;13.35;;;;;;;;;;10501447;28;20028;-74
2023/07/05 20:08:35;;;;;;;19.98;12.57;;;;;;;;;;10502510;28;20020;-74
2023/07/05 20:13:36;;;;;;;18.30;13.10;;;;;;;;;;10493686;28;20024;-73
2023/07/05 20:18:36;;;;;;;21.33;12.98;;;;;;;;;;10494402;28;20218;-69
2023/07/05 20:23:37;;;;;;;23.45;13.80;;;;;;;;;;10490389;28;20029;-74
2023/07/05 20:28:37;;;;;;;25.52;13.75;;;;;;;;;;10502555;28;20029;-77
2023/07/05 20:33:38;;;;;;;23.00;14.80;;;;;;;;;;10500975;28;20032;-77
2023/07/05 20:38:39;;;;;;;24.83;15.57;;;;;;;;;;10496876;28;20494;-76
2023/07/05 20:43:39;;;;;;;23.77;14.20;;;;;;;;;;10506672;28;20324;-73
2023/07/05 20:48:40;;;;;;;22.95;14.93;;;;;;;;;;10496586;28;20017;-71
2023/07/05 20:53:42;;;;;;;19.92;14.75;;;;;;;;;;10502304;28;20329;-73
2023/07/05 20:58:43;;;;;;;22.85;14.90;;;;;;;;;;10482002;28;20096;-72
2023/07/05 21:03:43;;;;;;;19.27;13.40;;;;;;;;;;10459872;28;20032;-72
2023/07/05 21:08:44;;;;;;;19.65;14.77;;;;;;;;;;10464525;28;20192;-74
2023/07/05 21:13:44;;;;;;;22.98;15.43;;;;;;;;;;10482860;28;20033;-75
2023/07/05 21:18:44;;;;;;;24.58;15.63;;;;;;;;;;10501580;28;20035;-74
2023/07/05 21:23:45;;;;;;;20.87;13.87;;;;;;;;;;10502465;28;20386;-74
2023/07/05 21:28:45;;;;;;;19.67;14.13;;;;;;;;;;10485086;28;20040;-74
2023/07/05 21:33:45;;;;;;;19.73;13.23;;;;;;;;;;10502694;28;20278;-72
2023/07/05 21:38:45;;;;;;;24.15;14.27;;;;;;;;;;10502937;28;20094;-72
2023/07/05 21:43:47;;;;;;;22.15;13.40;;;;;;;;;;10502563;28;20025;-73
2023/07/05 21:48:48;;;;;;;18.60;11.07;;;;;;;;;;10483575;28;20024;-73
2023/07/05 21:53:49;;;;;;;16.02;10.20;;;;;;;;;;10494092;28;20032;-73
2023/07/05 21:58:49;;;;;;;16.93;9.73;;;;;;;;;;10497925;28;20329;-73
2023/07/05 22:03:49;;;;;;;12.48;8.32;;;;;;;;;;10497713;28;20023;-73
2023/07/05 22:08:51;;;;;;;17.00;8.88;;;;;;;;;;10497262;28;20213;-73
2023/07/05 22:13:56;;;;;;;19.55;9.05;;;;;;;;;;10468158;28;20028;-73
2023/07/05 22:18:56;;;;;;;14.80;8.70;;;;;;;;;;10496305;28;20439;-73
2023/07/05 22:23:56;;;;;;;12.55;8.05;;;;;;;;;;10498247;28;20044;-73
2023/07/05 22:28:57;;;;;;;12.95;7.97;;;;;;;;;;10500078;28;20213;-73
2023/07/05 22:33:57;;;;;;;11.98;7.07;;;;;;;;;;10499746;28;20024;-74
2023/07/05 22:38:57;;;;;;;12.32;6.53;;;;;;;;;;10499423;28;20214;-76
2023/07/05 22:43:57;;;;;;;11.73;7.22;;;;;;;;;;10499791;28;20038;-73
2023/07/05 22:48:58;;;;;;;16.10;8.02;;;;;;;;;;10499550;28;20032;-74
2023/07/05 22:53:59;;;;;;;14.15;6.97;;;;;;;;;;10498308;28;20056;-72
2023/07/05 22:58:59;;;;;;;13.77;8.93;;;;;;;;;;10499612;28;20021;-73
2023/07/05 23:04:00;;;;;;;14.07;8.83;;;;;;;;;;10498641;28;20239;-74
2023/07/05 23:09:00;;;;;;;17.27;9.38;;;;;;;;;;10498597;28;20020;-73
2023/07/05 23:14:01;;;;;;;19.98;9.75;;;;;;;;;;10497970;28;20203;-74
2023/07/05 23:19:01;;;;;;;18.02;10.82;;;;;;;;;;10486427;28;20008;-74
2023/07/05 23:24:03;;;;;;;20.65;10.60;;;;;;;;;;10498465;28;20337;-74
2023/07/05 23:29:05;;;;;;;19.73;9.63;;;;;;;;;;10496920;28;20362;-72
2023/07/05 23:34:05;;;;;;;20.88;10.60;;;;;;;;;;10497537;28;20032;-74
2023/07/05 23:39:05;;;;;;;14.50;10.30;;;;;;;;;;10497996;28;20024;-74
2023/07/05 23:44:06;;;;;;;16.10;11.02;;;;;;;;;;10497419;28;20040;-74
2023/07/05 23:49:07;;;;;;;20.25;11.27;;;;;;;;;;10497517;28;20024;-74
2023/07/05 23:54:08;;;;;;;18.40;11.63;;;;;;;;;;10497131;28;20060;-74
2023/07/05 23:59:08;;;;;;;18.95;12.98;;;;;;;;;;10497133;28;20202;-73
